Terminal Aerodrome Forecast
Issued by NWS Portland, ME

Home | Current Version | Previous Version | Text Only | Print | Product List | Glossary On
Versions: 1 2 3 4 5 6 7 8 9 10 11 12 13 14 15 16 17
000
FTUS41 KGYX 210238 AAA
TAFCON
TAF AMD
KCON 210238Z 2103/2124 VRB03KT P6SM SKC
     FM210800 17005KT 5SM BR BKN015
     FM211200 16003KT 4SM -RA BR OVC007
     FM211500 17008KT P6SM OVC020=

USA.gov is the U.S. government's official web portal to all federal, state and local government web resources and services.